sensor_id;sensor_type;location;lat;lon;timestamp;temperature;humidity
26641;DHT22;14269;47.358;0.724;2023-04-24T00:01:09;11.0;76.0
26641;DHT22;14269;47.358;0.724;2023-04-24T00:03:40;11.0;77.0
26641;DHT22;14269;47.358;0.724;2023-04-24T00:06:11;11.0;77.0
26641;DHT22;14269;47.358;0.724;2023-04-24T00:08:43;10.0;77.0
26641;DHT22;14269;47.358;0.724;2023-04-24T00:11:15;11.0;77.0
26641;DHT22;14269;47.358;0.724;2023-04-24T00:13:46;10.0;77.0
26641;DHT22;14269;47.358;0.724;2023-04-24T00:16:18;10.0;77.0
26641;DHT22;14269;47.358;0.724;2023-04-24T00:18:49;10.0;78.0
26641;DHT22;14269;47.358;0.724;2023-04-24T00:21:32;10.0;77.0
26641;DHT22;14269;47.358;0.724;2023-04-24T00:24:03;10.0;78.0
26641;DHT22;14269;47.358;0.724;2023-04-24T00:26:35;10.0;78.0
26641;DHT22;14269;47.358;0.724;2023-04-24T00:29:06;10.0;77.0
26641;DHT22;14269;47.358;0.724;2023-04-24T00:31:38;10.0;77.0
26641;DHT22;14269;47.358;0.724;2023-04-24T00:34:11;10.0;78.0
26641;DHT22;14269;47.358;0.724;2023-04-24T00:36:52;10.0;78.0
26641;DHT22;14269;47.358;0.724;2023-04-24T00:39:23;10.0;78.0
26641;DHT22;14269;47.358;0.724;2023-04-24T00:41:55;10.0;77.0
26641;DHT22;14269;47.358;0.724;2023-04-24T00:44:37;10.0;78.0
26641;DHT22;14269;47.358;0.724;2023-04-24T00:47:08;10.0;78.0
26641;DHT22;14269;47.358;0.724;2023-04-24T00:49:40;10.0;78.0
26641;DHT22;14269;47.358;0.724;2023-04-24T00:52:12;10.0;78.0
26641;DHT22;14269;47.358;0.724;2023-04-24T00:54:53;10.0;78.0
26641;DHT22;14269;47.358;0.724;2023-04-24T00:57:25;10.0;78.0
26641;DHT22;14269;47.358;0.724;2023-04-24T00:59:56;10.0;78.0
26641;DHT22;14269;47.358;0.724;2023-04-24T01:02:29;10.0;78.0
26641;DHT22;14269;47.358;0.724;2023-04-24T01:05:12;10.0;78.0
26641;DHT22;14269;47.358;0.724;2023-04-24T01:07:51;10.0;79.0
26641;DHT22;14269;47.358;0.724;2023-04-24T01:10:24;10.0;79.0
26641;DHT22;14269;47.358;0.724;2023-04-24T01:13:05;10.0;78.0
26641;DHT22;14269;47.358;0.724;2023-04-24T01:15:37;10.0;78.0
26641;DHT22;14269;47.358;0.724;2023-04-24T01:18:08;10.0;78.0
26641;DHT22;14269;47.358;0.724;2023-04-24T01:20:41;10.0;78.0
26641;DHT22;14269;47.358;0.724;2023-04-24T01:23:22;10.0;78.0
26641;DHT22;14269;47.358;0.724;2023-04-24T01:25:54;10.0;78.0
26641;DHT22;14269;47.358;0.724;2023-04-24T01:28:25;10.0;78.0
26641;DHT22;14269;47.358;0.724;2023-04-24T01:30:57;10.0;79.0
26641;DHT22;14269;47.358;0.724;2023-04-24T01:33:28;10.0;78.0
26641;DHT22;14269;47.358;0.724;2023-04-24T01:36:01;10.0;79.0
26641;DHT22;14269;47.358;0.724;2023-04-24T01:38:31;10.0;78.0
26641;DHT22;14269;47.358;0.724;2023-04-24T01:41:03;10.0;79.0
26641;DHT22;14269;47.358;0.724;2023-04-24T01:43:35;10.0;78.0
26641;DHT22;14269;47.358;0.724;2023-04-24T01:46:07;10.0;78.0
26641;DHT22;14269;47.358;0.724;2023-04-24T01:48:38;10.0;79.0
26641;DHT22;14269;47.358;0.724;2023-04-24T01:51:10;10.0;80.0
26641;DHT22;14269;47.358;0.724;2023-04-24T01:53:41;10.0;79.0
26641;DHT22;14269;47.358;0.724;2023-04-24T01:56:14;10.0;79.0
26641;DHT22;14269;47.358;0.724;2023-04-24T01:58:45;10.0;79.0
26641;DHT22;14269;47.358;0.724;2023-04-24T02:01:17;10.0;79.0
26641;DHT22;14269;47.358;0.724;2023-04-24T02:03:58;10.0;79.0
26641;DHT22;14269;47.358;0.724;2023-04-24T02:06:31;10.0;79.0
26641;DHT22;14269;47.358;0.724;2023-04-24T02:09:11;10.0;80.0
26641;DHT22;14269;47.358;0.724;2023-04-24T02:11:43;10.0;80.0
26641;DHT22;14269;47.358;0.724;2023-04-24T02:14:15;10.0;79.0
26641;DHT22;14269;47.358;0.724;2023-04-24T02:16:46;10.0;79.0
26641;DHT22;14269;47.358;0.724;2023-04-24T02:19:18;10.0;80.0
26641;DHT22;14269;47.358;0.724;2023-04-24T02:21:50;10.0;79.0
26641;DHT22;14269;47.358;0.724;2023-04-24T02:24:21;10.0;79.0
26641;DHT22;14269;47.358;0.724;2023-04-24T02:26:53;10.0;79.0
26641;DHT22;14269;47.358;0.724;2023-04-24T02:29:25;10.0;79.0
26641;DHT22;14269;47.358;0.724;2023-04-24T02:31:56;10.0;78.0
26641;DHT22;14269;47.358;0.724;2023-04-24T02:34:28;10.0;78.0
26641;DHT22;14269;47.358;0.724;2023-04-24T02:36:59;10.0;78.0
26641;DHT22;14269;47.358;0.724;2023-04-24T02:39:31;10.0;78.0
26641;DHT22;14269;47.358;0.724;2023-04-24T02:42:03;10.0;78.0
26641;DHT22;14269;47.358;0.724;2023-04-24T02:44:35;10.0;78.0
26641;DHT22;14269;47.358;0.724;2023-04-24T02:47:07;10.0;78.0
26641;DHT22;14269;47.358;0.724;2023-04-24T02:49:48;10.0;79.0
26641;DHT22;14269;47.358;0.724;2023-04-24T02:52:19;10.0;78.0
26641;DHT22;14269;47.358;0.724;2023-04-24T02:54:51;10.0;78.0
26641;DHT22;14269;47.358;0.724;2023-04-24T02:57:33;10.0;78.0
26641;DHT22;14269;47.358;0.724;2023-04-24T03:00:07;10.0;78.0
26641;DHT22;14269;47.358;0.724;2023-04-24T03:02:46;10.0;78.0
26641;DHT22;14269;47.358;0.724;2023-04-24T03:05:18;10.0;78.0
26641;DHT22;14269;47.358;0.724;2023-04-24T03:07:50;10.0;78.0
26641;DHT22;14269;47.358;0.724;2023-04-24T03:10:32;10.0;78.0
26641;DHT22;14269;47.358;0.724;2023-04-24T03:13:03;10.0;78.0
26641;DHT22;14269;47.358;0.724;2023-04-24T03:15:35;10.0;77.0
26641;DHT22;14269;47.358;0.724;2023-04-24T03:18:06;10.0;78.0
26641;DHT22;14269;47.358;0.724;2023-04-24T03:20:38;10.0;78.0
26641;DHT22;14269;47.358;0.724;2023-04-24T03:23:10;10.0;77.0
26641;DHT22;14269;47.358;0.724;2023-04-24T03:25:42;10.0;77.0
26641;DHT22;14269;47.358;0.724;2023-04-24T03:28:25;10.0;77.0
26641;DHT22;14269;47.358;0.724;2023-04-24T03:31:05;10.0;77.0
26641;DHT22;14269;47.358;0.724;2023-04-24T03:33:36;10.0;77.0
26641;DHT22;14269;47.358;0.724;2023-04-24T03:36:08;10.0;76.0
26641;DHT22;14269;47.358;0.724;2023-04-24T03:38:40;10.0;77.0
26641;DHT22;14269;47.358;0.724;2023-04-24T03:41:11;10.0;77.0
26641;DHT22;14269;47.358;0.724;2023-04-24T03:43:43;10.0;77.0
26641;DHT22;14269;47.358;0.724;2023-04-24T03:46:15;10.0;77.0
26641;DHT22;14269;47.358;0.724;2023-04-24T03:48:46;10.0;77.0
26641;DHT22;14269;47.358;0.724;2023-04-24T03:51:18;10.0;77.0
26641;DHT22;14269;47.358;0.724;2023-04-24T03:53:50;9.0;77.0
26641;DHT22;14269;47.358;0.724;2023-04-24T03:56:21;9.0;77.0
26641;DHT22;14269;47.358;0.724;2023-04-24T03:58:53;9.0;78.0
26641;DHT22;14269;47.358;0.724;2023-04-24T04:01:25;9.0;78.0
26641;DHT22;14269;47.358;0.724;2023-04-24T04:03:56;9.0;77.0
26641;DHT22;14269;47.358;0.724;2023-04-24T04:06:28;9.0;78.0
26641;DHT22;14269;47.358;0.724;2023-04-24T04:09:10;9.0;77.0
26641;DHT22;14269;47.358;0.724;2023-04-24T04:11:41;9.0;77.0
26641;DHT22;14269;47.358;0.724;2023-04-24T04:14:13;9.0;77.0
26641;DHT22;14269;47.358;0.724;2023-04-24T04:16:45;9.0;77.0
26641;DHT22;14269;47.358;0.724;2023-04-24T04:19:16;9.0;77.0
26641;DHT22;14269;47.358;0.724;2023-04-24T04:21:52;9.0;77.0
26641;DHT22;14269;47.358;0.724;2023-04-24T04:24:29;9.0;77.0
26641;DHT22;14269;47.358;0.724;2023-04-24T04:27:01;9.0;77.0
26641;DHT22;14269;47.358;0.724;2023-04-24T04:29:34;9.0;77.0
26641;DHT22;14269;47.358;0.724;2023-04-24T04:32:15;9.0;77.0
26641;DHT22;14269;47.358;0.724;2023-04-24T04:34:46;9.0;78.0
26641;DHT22;14269;47.358;0.724;2023-04-24T04:37:28;9.0;78.0
26641;DHT22;14269;47.358;0.724;2023-04-24T04:40:00;9.0;78.0
26641;DHT22;14269;47.358;0.724;2023-04-24T04:42:32;9.0;77.0
26641;DHT22;14269;47.358;0.724;2023-04-24T04:45:16;9.0;77.0
26641;DHT22;14269;47.358;0.724;2023-04-24T04:47:55;9.0;77.0
26641;DHT22;14269;47.358;0.724;2023-04-24T04:50:36;9.0;78.0
26641;DHT22;14269;47.358;0.724;2023-04-24T04:53:08;9.0;78.0
26641;DHT22;14269;47.358;0.724;2023-04-24T04:55:40;9.0;78.0
26641;DHT22;14269;47.358;0.724;2023-04-24T04:58:11;9.0;78.0
26641;DHT22;14269;47.358;0.724;2023-04-24T05:00:44;9.0;78.0
26641;DHT22;14269;47.358;0.724;2023-04-24T05:03:15;9.0;78.0
26641;DHT22;14269;47.358;0.724;2023-04-24T05:05:46;9.0;77.0
26641;DHT22;14269;47.358;0.724;2023-04-24T05:08:18;9.0;78.0
26641;DHT22;14269;47.358;0.724;2023-04-24T05:10:50;9.0;77.0
26641;DHT22;14269;47.358;0.724;2023-04-24T05:13:21;9.0;77.0
26641;DHT22;14269;47.358;0.724;2023-04-24T05:15:53;9.0;77.0
26641;DHT22;14269;47.358;0.724;2023-04-24T05:18:25;9.0;77.0
26641;DHT22;14269;47.358;0.724;2023-04-24T05:20:56;9.0;77.0
26641;DHT22;14269;47.358;0.724;2023-04-24T05:23:28;9.0;77.0
26641;DHT22;14269;47.358;0.724;2023-04-24T05:26:00;9.0;77.0
26641;DHT22;14269;47.358;0.724;2023-04-24T05:28:31;9.0;78.0
26641;DHT22;14269;47.358;0.724;2023-04-24T05:31:03;9.0;78.0
26641;DHT22;14269;47.358;0.724;2023-04-24T05:33:35;9.0;77.0
26641;DHT22;14269;47.358;0.724;2023-04-24T05:36:06;9.0;77.0
26641;DHT22;14269;47.358;0.724;2023-04-24T05:38:38;9.0;77.0
26641;DHT22;14269;47.358;0.724;2023-04-24T05:41:09;9.0;77.0
26641;DHT22;14269;47.358;0.724;2023-04-24T05:43:41;9.0;77.0
26641;DHT22;14269;47.358;0.724;2023-04-24T05:46:13;9.0;76.0
26641;DHT22;14269;47.358;0.724;2023-04-24T05:48:44;9.0;77.0
26641;DHT22;14269;47.358;0.724;2023-04-24T05:51:16;9.0;76.0
26641;DHT22;14269;47.358;0.724;2023-04-24T05:53:48;9.0;76.0
26641;DHT22;14269;47.358;0.724;2023-04-24T05:56:20;9.0;76.0
26641;DHT22;14269;47.358;0.724;2023-04-24T05:58:51;9.0;75.0
26641;DHT22;14269;47.358;0.724;2023-04-24T06:01:23;9.0;76.0
26641;DHT22;14269;47.358;0.724;2023-04-24T06:04:05;9.0;76.0
26641;DHT22;14269;47.358;0.724;2023-04-24T06:06:50;10.0;75.0
26641;DHT22;14269;47.358;0.724;2023-04-24T06:09:28;10.0;75.0
26641;DHT22;14269;47.358;0.724;2023-04-24T06:12:00;9.0;75.0
26641;DHT22;14269;47.358;0.724;2023-04-24T06:14:31;9.0;75.0
26641;DHT22;14269;47.358;0.724;2023-04-24T06:17:03;10.0;76.0
26641;DHT22;14269;47.358;0.724;2023-04-24T06:19:34;10.0;75.0
26641;DHT22;14269;47.358;0.724;2023-04-24T06:22:06;10.0;75.0
26641;DHT22;14269;47.358;0.724;2023-04-24T06:24:39;9.0;76.0
26641;DHT22;14269;47.358;0.724;2023-04-24T06:27:20;9.0;76.0
26641;DHT22;14269;47.358;0.724;2023-04-24T06:29:54;10.0;76.0
26641;DHT22;14269;47.358;0.724;2023-04-24T06:32:33;10.0;76.0
26641;DHT22;14269;47.358;0.724;2023-04-24T06:35:07;10.0;75.0
26641;DHT22;14269;47.358;0.724;2023-04-24T06:37:46;10.0;76.0
26641;DHT22;14269;47.358;0.724;2023-04-24T06:40:18;10.0;76.0
26641;DHT22;14269;47.358;0.724;2023-04-24T06:42:50;10.0;75.0
26641;DHT22;14269;47.358;0.724;2023-04-24T06:45:21;10.0;76.0
26641;DHT22;14269;47.358;0.724;2023-04-24T06:47:53;10.0;76.0
26641;DHT22;14269;47.358;0.724;2023-04-24T06:50:25;10.0;75.0
26641;DHT22;14269;47.358;0.724;2023-04-24T06:52:56;10.0;75.0
26641;DHT22;14269;47.358;0.724;2023-04-24T06:55:28;10.0;75.0
26641;DHT22;14269;47.358;0.724;2023-04-24T06:57:59;10.0;75.0
26641;DHT22;14269;47.358;0.724;2023-04-24T07:00:31;10.0;75.0
26641;DHT22;14269;47.358;0.724;2023-04-24T07:03:03;10.0;75.0
26641;DHT22;14269;47.358;0.724;2023-04-24T07:05:46;10.0;75.0
26641;DHT22;14269;47.358;0.724;2023-04-24T07:08:26;10.0;75.0
26641;DHT22;14269;47.358;0.724;2023-04-24T07:10:58;10.0;75.0
26641;DHT22;14269;47.358;0.724;2023-04-24T07:13:30;10.0;75.0
26641;DHT22;14269;47.358;0.724;2023-04-24T07:16:01;10.0;74.0
26641;DHT22;14269;47.358;0.724;2023-04-24T07:18:33;10.0;75.0
26641;DHT22;14269;47.358;0.724;2023-04-24T07:21:05;10.0;75.0
26641;DHT22;14269;47.358;0.724;2023-04-24T07:23:46;10.0;74.0
26641;DHT22;14269;47.358;0.724;2023-04-24T07:26:19;10.0;75.0
26641;DHT22;14269;47.358;0.724;2023-04-24T07:28:50;10.0;75.0
26641;DHT22;14269;47.358;0.724;2023-04-24T07:31:21;10.0;75.0
26641;DHT22;14269;47.358;0.724;2023-04-24T07:33:53;11.0;74.0
26641;DHT22;14269;47.358;0.724;2023-04-24T07:36:26;11.0;74.0
26641;DHT22;14269;47.358;0.724;2023-04-24T07:39:08;11.0;74.0
26641;DHT22;14269;47.358;0.724;2023-04-24T07:41:48;11.0;73.0
26641;DHT22;14269;47.358;0.724;2023-04-24T07:44:20;11.0;73.0
26641;DHT22;14269;47.358;0.724;2023-04-24T07:46:51;11.0;73.0
26641;DHT22;14269;47.358;0.724;2023-04-24T07:49:23;11.0;73.0
26641;DHT22;14269;47.358;0.724;2023-04-24T07:51:55;11.0;72.0
26641;DHT22;14269;47.358;0.724;2023-04-24T07:54:26;11.0;71.0
26641;DHT22;14269;47.358;0.724;2023-04-24T07:56:58;11.0;72.0
26641;DHT22;14269;47.358;0.724;2023-04-24T07:59:30;11.0;71.0
26641;DHT22;14269;47.358;0.724;2023-04-24T08:02:01;11.0;71.0
26641;DHT22;14269;47.358;0.724;2023-04-24T08:04:33;11.0;70.0
26641;DHT22;14269;47.358;0.724;2023-04-24T08:07:05;11.0;70.0
26641;DHT22;14269;47.358;0.724;2023-04-24T08:09:36;11.0;69.0
26641;DHT22;14269;47.358;0.724;2023-04-24T08:12:08;11.0;70.0
26641;DHT22;14269;47.358;0.724;2023-04-24T08:14:40;11.0;69.0
26641;DHT22;14269;47.358;0.724;2023-04-24T08:17:11;12.0;69.0
26641;DHT22;14269;47.358;0.724;2023-04-24T08:19:47;12.0;68.0
26641;DHT22;14269;47.358;0.724;2023-04-24T08:22:25;12.0;67.0
26641;DHT22;14269;47.358;0.724;2023-04-24T08:24:57;12.0;66.0
26641;DHT22;14269;47.358;0.724;2023-04-24T08:27:28;13.0;65.0
26641;DHT22;14269;47.358;0.724;2023-04-24T08:29:59;13.0;64.0
26641;DHT22;14269;47.358;0.724;2023-04-24T08:32:31;13.0;62.0
26641;DHT22;14269;47.358;0.724;2023-04-24T08:35:03;14.0;61.0
26641;DHT22;14269;47.358;0.724;2023-04-24T08:37:34;13.0;62.0
26641;DHT22;14269;47.358;0.724;2023-04-24T08:40:13;13.0;61.0
26641;DHT22;14269;47.358;0.724;2023-04-24T08:42:49;13.0;62.0
26641;DHT22;14269;47.358;0.724;2023-04-24T08:45:40;13.0;61.0
26641;DHT22;14269;47.358;0.724;2023-04-24T08:48:11;13.0;62.0
26641;DHT22;14269;47.358;0.724;2023-04-24T08:50:44;13.0;61.0
26641;DHT22;14269;47.358;0.724;2023-04-24T08:53:25;13.0;60.0
26641;DHT22;14269;47.358;0.724;2023-04-24T08:55:56;14.0;58.0
26641;DHT22;14269;47.358;0.724;2023-04-24T08:58:29;14.0;56.0
26641;DHT22;14269;47.358;0.724;2023-04-24T09:01:00;14.0;58.0
26641;DHT22;14269;47.358;0.724;2023-04-24T09:03:42;14.0;58.0
26641;DHT22;14269;47.358;0.724;2023-04-24T09:06:13;14.0;59.0
26641;DHT22;14269;47.358;0.724;2023-04-24T09:08:45;14.0;59.0
26641;DHT22;14269;47.358;0.724;2023-04-24T09:11:27;14.0;58.0
26641;DHT22;14269;47.358;0.724;2023-04-24T09:13:58;14.0;57.0
26641;DHT22;14269;47.358;0.724;2023-04-24T09:16:30;14.0;56.0
26641;DHT22;14269;47.358;0.724;2023-04-24T09:19:12;14.0;54.0
26641;DHT22;14269;47.358;0.724;2023-04-24T09:21:46;14.0;55.0
26641;DHT22;14269;47.358;0.724;2023-04-24T09:24:25;14.0;54.0
26641;DHT22;14269;47.358;0.724;2023-04-24T09:26:58;14.0;52.0
26641;DHT22;14269;47.358;0.724;2023-04-24T09:29:38;14.0;52.0
26641;DHT22;14269;47.358;0.724;2023-04-24T09:32:26;14.0;54.0
26641;DHT22;14269;47.358;0.724;2023-04-24T09:35:08;15.0;54.0
26641;DHT22;14269;47.358;0.724;2023-04-24T09:37:45;15.0;50.0
26641;DHT22;14269;47.358;0.724;2023-04-24T09:40:26;15.0;51.0
26641;DHT22;14269;47.358;0.724;2023-04-24T09:42:58;15.0;50.0
26641;DHT22;14269;47.358;0.724;2023-04-24T09:45:39;15.0;49.0
26641;DHT22;14269;47.358;0.724;2023-04-24T09:48:10;16.0;49.0
26641;DHT22;14269;47.358;0.724;2023-04-24T09:50:46;16.0;50.0
26641;DHT22;14269;47.358;0.724;2023-04-24T09:53:25;15.0;49.0
26641;DHT22;14269;47.358;0.724;2023-04-24T09:56:08;15.0;51.0
26641;DHT22;14269;47.358;0.724;2023-04-24T09:58:47;15.0;50.0
26641;DHT22;14269;47.358;0.724;2023-04-24T10:01:29;14.0;51.0
26641;DHT22;14269;47.358;0.724;2023-04-24T10:04:01;14.0;52.0
26641;DHT22;14269;47.358;0.724;2023-04-24T10:06:34;14.0;52.0
26641;DHT22;14269;47.358;0.724;2023-04-24T10:09:15;14.0;53.0
26641;DHT22;14269;47.358;0.724;2023-04-24T10:11:47;14.0;54.0
26641;DHT22;14269;47.358;0.724;2023-04-24T10:14:29;14.0;54.0
26641;DHT22;14269;47.358;0.724;2023-04-24T10:17:10;14.0;54.0
26641;DHT22;14269;47.358;0.724;2023-04-24T10:19:51;14.0;53.0
26641;DHT22;14269;47.358;0.724;2023-04-24T10:22:23;14.0;51.0
26641;DHT22;14269;47.358;0.724;2023-04-24T10:25:05;14.0;50.0
26641;DHT22;14269;47.358;0.724;2023-04-24T10:27:47;15.0;51.0
26641;DHT22;14269;47.358;0.724;2023-04-24T10:30:29;15.0;50.0
26641;DHT22;14269;47.358;0.724;2023-04-24T10:33:10;16.0;48.0
26641;DHT22;14269;47.358;0.724;2023-04-24T10:35:52;17.0;48.0
26641;DHT22;14269;47.358;0.724;2023-04-24T10:38:25;17.0;48.0
26641;DHT22;14269;47.358;0.724;2023-04-24T10:41:10;17.0;48.0
26641;DHT22;14269;47.358;0.724;2023-04-24T10:43:48;17.0;48.0
26641;DHT22;14269;47.358;0.724;2023-04-24T10:46:30;16.0;44.0
26641;DHT22;14269;47.358;0.724;2023-04-24T10:49:10;16.0;45.0
26641;DHT22;14269;47.358;0.724;2023-04-24T10:51:47;16.0;46.0
26641;DHT22;14269;47.358;0.724;2023-04-24T10:54:25;15.0;46.0
26641;DHT22;14269;47.358;0.724;2023-04-24T10:57:37;15.0;46.0
26641;DHT22;14269;47.358;0.724;2023-04-24T11:00:20;15.0;47.0
26641;DHT22;14269;47.358;0.724;2023-04-24T11:02:59;15.0;47.0
26641;DHT22;14269;47.358;0.724;2023-04-24T11:06:04;15.0;47.0
26641;DHT22;14269;47.358;0.724;2023-04-24T11:08:45;15.0;47.0
26641;DHT22;14269;47.358;0.724;2023-04-24T11:11:28;15.0;49.0
26641;DHT22;14269;47.358;0.724;2023-04-24T11:14:07;15.0;49.0
26641;DHT22;14269;47.358;0.724;2023-04-24T11:16:52;15.0;49.0
26641;DHT22;14269;47.358;0.724;2023-04-24T11:19:31;15.0;50.0
26641;DHT22;14269;47.358;0.724;2023-04-24T11:22:14;15.0;48.0
26641;DHT22;14269;47.358;0.724;2023-04-24T11:24:53;15.0;49.0
26641;DHT22;14269;47.358;0.724;2023-04-24T11:27:30;15.0;51.0
26641;DHT22;14269;47.358;0.724;2023-04-24T11:30:08;15.0;49.0
26641;DHT22;14269;47.358;0.724;2023-04-24T11:32:51;15.0;49.0
26641;DHT22;14269;47.358;0.724;2023-04-24T11:35:35;14.0;49.0
26641;DHT22;14269;47.358;0.724;2023-04-24T11:38:13;14.0;49.0
26641;DHT22;14269;47.358;0.724;2023-04-24T11:40:54;14.0;50.0
26641;DHT22;14269;47.358;0.724;2023-04-24T11:43:26;14.0;48.0
26641;DHT22;14269;47.358;0.724;2023-04-24T11:45:59;14.0;49.0
26641;DHT22;14269;47.358;0.724;2023-04-24T11:48:44;15.0;49.0
26641;DHT22;14269;47.358;0.724;2023-04-24T11:51:22;16.0;47.0
26641;DHT22;14269;47.358;0.724;2023-04-24T11:54:07;17.0;44.0
26641;DHT22;14269;47.358;0.724;2023-04-24T11:56:44;16.0;44.0
26641;DHT22;14269;47.358;0.724;2023-04-24T11:59:26;16.0;43.0
26641;DHT22;14269;47.358;0.724;2023-04-24T12:01:57;16.0;45.0
26641;DHT22;14269;47.358;0.724;2023-04-24T12:04:38;15.0;46.0
26641;DHT22;14269;47.358;0.724;2023-04-24T12:07:11;15.0;46.0
26641;DHT22;14269;47.358;0.724;2023-04-24T12:09:44;15.0;47.0
26641;DHT22;14269;47.358;0.724;2023-04-24T12:12:25;15.0;47.0
26641;DHT22;14269;47.358;0.724;2023-04-24T12:15:07;15.0;46.0
26641;DHT22;14269;47.358;0.724;2023-04-24T12:17:50;15.0;49.0
26641;DHT22;14269;47.358;0.724;2023-04-24T12:20:31;15.0;47.0
26641;DHT22;14269;47.358;0.724;2023-04-24T12:23:11;15.0;48.0
26641;DHT22;14269;47.358;0.724;2023-04-24T12:25:43;15.0;47.0
26641;DHT22;14269;47.358;0.724;2023-04-24T12:28:15;15.0;48.0
26641;DHT22;14269;47.358;0.724;2023-04-24T12:30:48;15.0;49.0
26641;DHT22;14269;47.358;0.724;2023-04-24T12:33:32;15.0;48.0
26641;DHT22;14269;47.358;0.724;2023-04-24T12:36:12;15.0;48.0
26641;DHT22;14269;47.358;0.724;2023-04-24T12:38:53;15.0;48.0
26641;DHT22;14269;47.358;0.724;2023-04-24T12:41:23;15.0;48.0
26641;DHT22;14269;47.358;0.724;2023-04-24T12:43:55;15.0;47.0
26641;DHT22;14269;47.358;0.724;2023-04-24T12:46:26;15.0;48.0
26641;DHT22;14269;47.358;0.724;2023-04-24T12:48:58;15.0;47.0
26641;DHT22;14269;47.358;0.724;2023-04-24T12:51:30;15.0;47.0
26641;DHT22;14269;47.358;0.724;2023-04-24T12:54:01;15.0;47.0
26641;DHT22;14269;47.358;0.724;2023-04-24T12:56:33;15.0;48.0
26641;DHT22;14269;47.358;0.724;2023-04-24T12:59:05;16.0;47.0
26641;DHT22;14269;47.358;0.724;2023-04-24T13:01:36;16.0;46.0
26641;DHT22;14269;47.358;0.724;2023-04-24T13:04:08;16.0;46.0
26641;DHT22;14269;47.358;0.724;2023-04-24T13:06:40;16.0;48.0
26641;DHT22;14269;47.358;0.724;2023-04-24T13:09:11;16.0;47.0
26641;DHT22;14269;47.358;0.724;2023-04-24T13:11:43;16.0;46.0
26641;DHT22;14269;47.358;0.724;2023-04-24T13:14:15;16.0;47.0
26641;DHT22;14269;47.358;0.724;2023-04-24T13:16:46;16.0;47.0
26641;DHT22;14269;47.358;0.724;2023-04-24T13:19:18;16.0;46.0
26641;DHT22;14269;47.358;0.724;2023-04-24T13:21:50;16.0;47.0
26641;DHT22;14269;47.358;0.724;2023-04-24T13:24:24;16.0;47.0
26641;DHT22;14269;47.358;0.724;2023-04-24T13:27:03;16.0;48.0
26641;DHT22;14269;47.358;0.724;2023-04-24T13:29:35;16.0;47.0
26641;DHT22;14269;47.358;0.724;2023-04-24T13:32:07;16.0;47.0
26641;DHT22;14269;47.358;0.724;2023-04-24T13:34:38;16.0;47.0
26641;DHT22;14269;47.358;0.724;2023-04-24T13:37:10;16.0;48.0
26641;DHT22;14269;47.358;0.724;2023-04-24T13:39:41;16.0;46.0
26641;DHT22;14269;47.358;0.724;2023-04-24T13:42:13;17.0;46.0
26641;DHT22;14269;47.358;0.724;2023-04-24T13:44:45;18.0;45.0
26641;DHT22;14269;47.358;0.724;2023-04-24T13:47:16;18.0;42.0
26641;DHT22;14269;47.358;0.724;2023-04-24T13:49:48;17.0;44.0
26641;DHT22;14269;47.358;0.724;2023-04-24T13:52:20;17.0;43.0
26641;DHT22;14269;47.358;0.724;2023-04-24T13:54:51;17.0;43.0
26641;DHT22;14269;47.358;0.724;2023-04-24T13:57:23;17.0;44.0
26641;DHT22;14269;47.358;0.724;2023-04-24T13:59:55;18.0;43.0
26641;DHT22;14269;47.358;0.724;2023-04-24T14:02:36;17.0;43.0
26641;DHT22;14269;47.358;0.724;2023-04-24T14:05:08;17.0;45.0
26641;DHT22;14269;47.358;0.724;2023-04-24T14:07:50;18.0;46.0
26641;DHT22;14269;47.358;0.724;2023-04-24T14:10:21;18.0;43.0
26641;DHT22;14269;47.358;0.724;2023-04-24T14:12:53;18.0;44.0
26641;DHT22;14269;47.358;0.724;2023-04-24T14:15:24;17.0;43.0
26641;DHT22;14269;47.358;0.724;2023-04-24T14:17:56;17.0;43.0
26641;DHT22;14269;47.358;0.724;2023-04-24T14:20:28;17.0;44.0
26641;DHT22;14269;47.358;0.724;2023-04-24T14:25:52;16.0;48.0
26641;DHT22;14269;47.358;0.724;2023-04-24T14:28:33;17.0;46.0
26641;DHT22;14269;47.358;0.724;2023-04-24T14:31:04;17.0;46.0
26641;DHT22;14269;47.358;0.724;2023-04-24T14:33:36;17.0;47.0
26641;DHT22;14269;47.358;0.724;2023-04-24T14:36:08;16.0;47.0
26641;DHT22;14269;47.358;0.724;2023-04-24T14:38:39;16.0;47.0
26641;DHT22;14269;47.358;0.724;2023-04-24T14:41:11;16.0;48.0
26641;DHT22;14269;47.358;0.724;2023-04-24T14:43:43;16.0;48.0
26641;DHT22;14269;47.358;0.724;2023-04-24T14:46:14;16.0;48.0
26641;DHT22;14269;47.358;0.724;2023-04-24T14:48:46;16.0;49.0
26641;DHT22;14269;47.358;0.724;2023-04-24T14:51:18;16.0;47.0
26641;DHT22;14269;47.358;0.724;2023-04-24T14:53:49;16.0;48.0
26641;DHT22;14269;47.358;0.724;2023-04-24T14:56:21;16.0;48.0
26641;DHT22;14269;47.358;0.724;2023-04-24T14:58:53;16.0;49.0
26641;DHT22;14269;47.358;0.724;2023-04-24T15:01:25;16.0;47.0
26641;DHT22;14269;47.358;0.724;2023-04-24T15:03:56;16.0;48.0
26641;DHT22;14269;47.358;0.724;2023-04-24T15:06:29;16.0;49.0
26641;DHT22;14269;47.358;0.724;2023-04-24T15:09:09;15.0;49.0
26641;DHT22;14269;47.358;0.724;2023-04-24T15:11:41;15.0;49.0
26641;DHT22;14269;47.358;0.724;2023-04-24T15:14:12;15.0;50.0
26641;DHT22;14269;47.358;0.724;2023-04-24T15:16:44;15.0;50.0
26641;DHT22;14269;47.358;0.724;2023-04-24T15:19:16;15.0;52.0
26641;DHT22;14269;47.358;0.724;2023-04-24T15:21:47;15.0;51.0
26641;DHT22;14269;47.358;0.724;2023-04-24T15:24:19;15.0;52.0
26641;DHT22;14269;47.358;0.724;2023-04-24T15:26:51;15.0;52.0
26641;DHT22;14269;47.358;0.724;2023-04-24T15:29:22;15.0;52.0
26641;DHT22;14269;47.358;0.724;2023-04-24T15:31:54;16.0;52.0
26641;DHT22;14269;47.358;0.724;2023-04-24T15:34:26;16.0;52.0
26641;DHT22;14269;47.358;0.724;2023-04-24T15:36:57;16.0;51.0
26641;DHT22;14269;47.358;0.724;2023-04-24T15:39:29;16.0;50.0
26641;DHT22;14269;47.358;0.724;2023-04-24T15:42:01;16.0;50.0
26641;DHT22;14269;47.358;0.724;2023-04-24T15:44:32;16.0;49.0
26641;DHT22;14269;47.358;0.724;2023-04-24T15:47:04;16.0;50.0
26641;DHT22;14269;47.358;0.724;2023-04-24T15:49:36;16.0;50.0
26641;DHT22;14269;47.358;0.724;2023-04-24T15:52:09;16.0;49.0
26641;DHT22;14269;47.358;0.724;2023-04-24T15:54:49;16.0;48.0
26641;DHT22;14269;47.358;0.724;2023-04-24T15:57:21;16.0;49.0
26641;DHT22;14269;47.358;0.724;2023-04-24T15:59:52;16.0;48.0
26641;DHT22;14269;47.358;0.724;2023-04-24T16:02:24;16.0;48.0
26641;DHT22;14269;47.358;0.724;2023-04-24T16:04:55;16.0;47.0
26641;DHT22;14269;47.358;0.724;2023-04-24T16:07:27;16.0;49.0
26641;DHT22;14269;47.358;0.724;2023-04-24T16:09:59;16.0;48.0
26641;DHT22;14269;47.358;0.724;2023-04-24T16:12:30;16.0;48.0
26641;DHT22;14269;47.358;0.724;2023-04-24T16:15:03;16.0;49.0
26641;DHT22;14269;47.358;0.724;2023-04-24T16:17:44;16.0;49.0
26641;DHT22;14269;47.358;0.724;2023-04-24T16:20:16;16.0;49.0
26641;DHT22;14269;47.358;0.724;2023-04-24T16:22:47;16.0;48.0
26641;DHT22;14269;47.358;0.724;2023-04-24T16:25:19;16.0;47.0
26641;DHT22;14269;47.358;0.724;2023-04-24T16:27:51;16.0;48.0
26641;DHT22;14269;47.358;0.724;2023-04-24T16:30:32;16.0;48.0
26641;DHT22;14269;47.358;0.724;2023-04-24T16:33:06;16.0;48.0
26641;DHT22;14269;47.358;0.724;2023-04-24T16:35:46;16.0;48.0
26641;DHT22;14269;47.358;0.724;2023-04-24T16:38:17;16.0;48.0
26641;DHT22;14269;47.358;0.724;2023-04-24T16:40:49;16.0;47.0
26641;DHT22;14269;47.358;0.724;2023-04-24T16:43:21;16.0;48.0
26641;DHT22;14269;47.358;0.724;2023-04-24T16:45:52;16.0;47.0
26641;DHT22;14269;47.358;0.724;2023-04-24T16:48:24;16.0;49.0
26641;DHT22;14269;47.358;0.724;2023-04-24T16:50:55;16.0;48.0
26641;DHT22;14269;47.358;0.724;2023-04-24T16:53:27;15.0;49.0